LIRLLIRN

Guest
Details From LIRL - LATINA
To LIRN - Naples Capodichino
Flight Number -
Tags generated
Created
Modified
Stats Distance 74 nm / 137 km
Max Altitude 100 ft / 30 m
Waypoints 3
Social Downloads 0
Likes 0
Share VATSIM

Download

Looking for another format? Having issues loading an existing format? Contact us
Advertisement - Login to hide

Notes

Basic altitude profile: - Ascent Rate: 2500ft/min - Ascent Speed: 250kts - Cruise Altitude: 35000ft - Cruise Speed: 420kts - Descent Rate: 1500ft/min - Descent Speed: 250kts Options: - Use NATs: yes - Use PACOTS: yes - Use low airways: yes - Use high airways: yes

Route

LIRL LAT LIRN

ID Type Via Altitude Latitude Longitude Leg Dist Tot Dist Heading (true) Name
O LIRL APT - 0 ft / 0 m 41.54244˚ 12.90902˚ - 0 nm - LATINA
LAT VOR - 100 ft / 30 m 41.54110˚ 12.91806˚ 0 nm 0 nm 101° / 101° LATINA VOR-DME
O LIRN APT - 0 ft / 0 m 40.88603˚ 14.29078˚ 73 nm 73 nm 122° / 123° Naples Capodichino

Altitude Profile

Advertisement - Login to hide

LIRL

Details ICAO LIRL (QLT)
Name LATINA
Region Italy
Timezone Europe/Rome (UTC+1.0)
Stats Elevation 93 ft / 28 m (AMSL)
Location 41.542436° 12.909019°
Runways 1
Magnetic Variation 3.103° E

METAR

LIRL 181755Z 29003KT CAVOK 04/M00 Q1021 RMK SKC MON INVIS NC VIS MIN 9999 WIND THR12 30004KT WIND THR30 /////KT BLU

Decode

TAF

Not found

Departure Runways

ID Width Length Bearing (true) Bearing (mag) Surface Threshold Offset Overrun Length
12 131 ft / 40 m 5,557 ft / 1,694 m 124.64° 121.54° Asphalt 0 ft / 0 m 174 ft / 53 m
30 131 ft / 40 m 5,557 ft / 1,694 m 304.65° 301.55° Asphalt 0 ft / 0 m 413 ft / 126 m

LIRN

Details ICAO LIRN (NAP)
Name Naples Capodichino
Region Italy
Timezone Europe/Rome (UTC+1.0)
Stats Elevation 294 ft / 90 m (AMSL)
Location 40.886032° 14.290783°
Runways 1
Magnetic Variation 3.309° E

METAR

LIRN 181820Z 04005KT 9999 FEW050 05/M02 Q1023 NOSIG

Decode

TAF

TAF LIRN 181700Z 1818/1918 04008KT CAVOK

Decode

Destination Runways

ID Width Length Bearing (true) Bearing (mag) Surface Threshold Offset Overrun Length
06 148 ft / 45 m 8,612 ft / 2,625 m 58.03° 54.72° Asphalt 1,309 ft / 399 m 0 ft / 0 m
24 148 ft / 45 m 8,612 ft / 2,625 m 238.05° 234.74° Asphalt 624 ft / 190 m 0 ft / 0 m

Approach Navaids

Runway Type Ident Frequency Range Bearing (true) Bearing (mag) Slope Elevation
06 Localiser NPC 110.15 MHz 18 nm / 33 km 52.74° 49.43° - 294 ft / 90 m (AMSL)
06 Glidescope NPC 110.15 MHz 10 nm / 19 km 58.04° 54.73° 3.50° 294 ft / 90 m (AMSL)
06 DME NPC 110.15 MHz 25 nm / 46 km - - - 294 ft / 90 m (AMSL)
24 Localiser INPL 109.50 MHz 18 nm / 33 km 238.03° 234.72° - 288 ft / 88 m (AMSL)
24 Glidescope INPL 109.50 MHz 10 nm / 19 km 238.04° 234.73° 3.33° 250 ft / 76 m (AMSL)
24 DME INPL 109.50 MHz 25 nm / 46 km - - - 250 ft / 76 m (AMSL)

Popular Alternatives